sensor_id;sensor_type;location;lat;lon;timestamp;P1;durP1;ratioP1;P2;durP2;ratioP2
62435;SDS011;48480;50.252;18.848;2023-08-07T00:00:27;7.00;;;3.40;;
62435;SDS011;48480;50.252;18.848;2023-08-07T00:03:11;4.10;;;2.90;;
62435;SDS011;48480;50.252;18.848;2023-08-07T00:05:55;5.50;;;3.40;;
62435;SDS011;48480;50.252;18.848;2023-08-07T00:08:39;6.00;;;3.60;;
62435;SDS011;48480;50.252;18.848;2023-08-07T00:11:25;4.00;;;3.50;;
62435;SDS011;48480;50.252;18.848;2023-08-07T00:14:12;4.20;;;3.70;;
62435;SDS011;48480;50.252;18.848;2023-08-07T00:16:56;4.30;;;3.40;;
62435;SDS011;48480;50.252;18.848;2023-08-07T00:19:40;6.80;;;3.50;;
62435;SDS011;48480;50.252;18.848;2023-08-07T00:22:24;4.70;;;3.40;;
62435;SDS011;48480;50.252;18.848;2023-08-07T00:25:10;5.20;;;3.70;;
62435;SDS011;48480;50.252;18.848;2023-08-07T00:27:54;4.60;;;3.40;;
62435;SDS011;48480;50.252;18.848;2023-08-07T00:30:38;4.70;;;3.40;;
62435;SDS011;48480;50.252;18.848;2023-08-07T00:33:22;4.70;;;3.80;;
62435;SDS011;48480;50.252;18.848;2023-08-07T00:36:07;5.00;;;3.80;;
62435;SDS011;48480;50.252;18.848;2023-08-07T00:38:53;6.20;;;4.00;;
62435;SDS011;48480;50.252;18.848;2023-08-07T00:41:37;5.60;;;4.50;;
62435;SDS011;48480;50.252;18.848;2023-08-07T00:44:23;7.40;;;4.00;;
62435;SDS011;48480;50.252;18.848;2023-08-07T00:47:07;6.40;;;3.90;;
62435;SDS011;48480;50.252;18.848;2023-08-07T00:49:51;6.70;;;3.40;;
62435;SDS011;48480;50.252;18.848;2023-08-07T00:52:35;5.20;;;3.40;;
62435;SDS011;48480;50.252;18.848;2023-08-07T00:55:20;5.60;;;3.60;;
62435;SDS011;48480;50.252;18.848;2023-08-07T00:58:04;4.80;;;4.10;;
62435;SDS011;48480;50.252;18.848;2023-08-07T01:00:48;5.30;;;3.40;;
62435;SDS011;48480;50.252;18.848;2023-08-07T01:03:32;6.00;;;3.90;;
62435;SDS011;48480;50.252;18.848;2023-08-07T01:06:16;5.60;;;3.80;;
62435;SDS011;48480;50.252;18.848;2023-08-07T01:09:01;5.20;;;4.00;;
62435;SDS011;48480;50.252;18.848;2023-08-07T01:14:49;5.40;;;4.00;;
62435;SDS011;48480;50.252;18.848;2023-08-07T01:17:37;4.70;;;3.50;;
62435;SDS011;48480;50.252;18.848;2023-08-07T01:20:22;4.40;;;4.00;;
62435;SDS011;48480;50.252;18.848;2023-08-07T01:23:06;4.70;;;4.10;;
62435;SDS011;48480;50.252;18.848;2023-08-07T01:25:50;6.50;;;4.30;;
62435;SDS011;48480;50.252;18.848;2023-08-07T01:28:40;4.70;;;4.10;;
62435;SDS011;48480;50.252;18.848;2023-08-07T01:31:33;4.80;;;3.70;;
62435;SDS011;48480;50.252;18.848;2023-08-07T01:34:21;5.60;;;4.60;;
62435;SDS011;48480;50.252;18.848;2023-08-07T01:37:08;6.90;;;4.20;;
62435;SDS011;48480;50.252;18.848;2023-08-07T01:39:54;4.90;;;3.70;;
62435;SDS011;48480;50.252;18.848;2023-08-07T01:42:41;5.40;;;4.00;;
62435;SDS011;48480;50.252;18.848;2023-08-07T01:45:27;4.80;;;4.10;;
62435;SDS011;48480;50.252;18.848;2023-08-07T01:48:12;6.90;;;4.30;;
62435;SDS011;48480;50.252;18.848;2023-08-07T01:50:57;8.60;;;4.50;;
62435;SDS011;48480;50.252;18.848;2023-08-07T01:53:41;5.40;;;4.40;;
62435;SDS011;48480;50.252;18.848;2023-08-07T01:56:25;5.40;;;4.30;;
62435;SDS011;48480;50.252;18.848;2023-08-07T01:59:09;6.40;;;4.80;;
62435;SDS011;48480;50.252;18.848;2023-08-07T02:01:53;4.80;;;4.30;;
62435;SDS011;48480;50.252;18.848;2023-08-07T02:04:38;6.90;;;4.80;;
62435;SDS011;48480;50.252;18.848;2023-08-07T02:07:22;6.00;;;4.50;;
62435;SDS011;48480;50.252;18.848;2023-08-07T02:10:06;9.00;;;4.30;;
62435;SDS011;48480;50.252;18.848;2023-08-07T02:12:53;5.60;;;4.30;;
62435;SDS011;48480;50.252;18.848;2023-08-07T02:15:37;4.80;;;4.30;;
62435;SDS011;48480;50.252;18.848;2023-08-07T02:18:22;6.60;;;5.00;;
62435;SDS011;48480;50.252;18.848;2023-08-07T02:21:06;6.00;;;4.60;;
62435;SDS011;48480;50.252;18.848;2023-08-07T02:23:50;6.90;;;5.00;;
62435;SDS011;48480;50.252;18.848;2023-08-07T02:26:34;5.30;;;4.50;;
62435;SDS011;48480;50.252;18.848;2023-08-07T02:29:18;7.50;;;4.40;;
62435;SDS011;48480;50.252;18.848;2023-08-07T02:32:02;5.20;;;4.60;;
62435;SDS011;48480;50.252;18.848;2023-08-07T02:34:47;4.70;;;4.20;;
62435;SDS011;48480;50.252;18.848;2023-08-07T02:37:31;5.50;;;4.20;;
62435;SDS011;48480;50.252;18.848;2023-08-07T02:40:16;5.60;;;4.50;;
62435;SDS011;48480;50.252;18.848;2023-08-07T02:43:02;5.50;;;4.60;;
62435;SDS011;48480;50.252;18.848;2023-08-07T02:45:46;6.20;;;4.90;;
62435;SDS011;48480;50.252;18.848;2023-08-07T02:48:30;4.40;;;4.00;;
62435;SDS011;48480;50.252;18.848;2023-08-07T02:51:14;4.80;;;4.20;;
62435;SDS011;48480;50.252;18.848;2023-08-07T02:53:58;4.20;;;3.80;;
62435;SDS011;48480;50.252;18.848;2023-08-07T02:56:43;5.30;;;4.30;;
62435;SDS011;48480;50.252;18.848;2023-08-07T02:59:27;4.50;;;4.10;;
62435;SDS011;48480;50.252;18.848;2023-08-07T03:02:11;4.40;;;3.90;;
62435;SDS011;48480;50.252;18.848;2023-08-07T03:04:54;6.20;;;4.00;;
62435;SDS011;48480;50.252;18.848;2023-08-07T03:07:38;4.20;;;3.70;;
62435;SDS011;48480;50.252;18.848;2023-08-07T03:10:22;4.60;;;4.10;;
62435;SDS011;48480;50.252;18.848;2023-08-07T03:13:07;4.00;;;3.50;;
62435;SDS011;48480;50.252;18.848;2023-08-07T03:15:58;4.80;;;3.70;;
62435;SDS011;48480;50.252;18.848;2023-08-07T03:18:48;5.70;;;4.20;;
62435;SDS011;48480;50.252;18.848;2023-08-07T03:21:32;7.50;;;4.40;;
62435;SDS011;48480;50.252;18.848;2023-08-07T03:24:17;5.70;;;4.30;;
62435;SDS011;48480;50.252;18.848;2023-08-07T03:27:00;6.20;;;3.70;;
62435;SDS011;48480;50.252;18.848;2023-08-07T03:29:45;4.40;;;3.70;;
62435;SDS011;48480;50.252;18.848;2023-08-07T03:32:29;4.90;;;3.30;;
62435;SDS011;48480;50.252;18.848;2023-08-07T03:35:13;4.80;;;4.00;;
62435;SDS011;48480;50.252;18.848;2023-08-07T03:37:57;4.50;;;3.50;;
62435;SDS011;48480;50.252;18.848;2023-08-07T03:40:41;4.50;;;3.40;;
62435;SDS011;48480;50.252;18.848;2023-08-07T03:43:25;6.10;;;4.10;;
62435;SDS011;48480;50.252;18.848;2023-08-07T03:46:09;4.80;;;3.80;;
62435;SDS011;48480;50.252;18.848;2023-08-07T03:48:53;4.40;;;2.90;;
62435;SDS011;48480;50.252;18.848;2023-08-07T03:51:37;3.60;;;2.60;;
62435;SDS011;48480;50.252;18.848;2023-08-07T03:54:22;4.00;;;2.50;;
62435;SDS011;48480;50.252;18.848;2023-08-07T03:57:06;4.40;;;2.90;;
62435;SDS011;48480;50.252;18.848;2023-08-07T03:59:52;4.40;;;2.30;;
62435;SDS011;48480;50.252;18.848;2023-08-07T04:02:38;3.00;;;2.60;;
62435;SDS011;48480;50.252;18.848;2023-08-07T04:05:22;3.50;;;2.80;;
62435;SDS011;48480;50.252;18.848;2023-08-07T04:08:06;3.30;;;2.50;;
62435;SDS011;48480;50.252;18.848;2023-08-07T04:11:03;4.90;;;2.60;;
62435;SDS011;48480;50.252;18.848;2023-08-07T04:13:48;7.10;;;2.90;;
62435;SDS011;48480;50.252;18.848;2023-08-07T04:16:32;3.50;;;2.50;;
62435;SDS011;48480;50.252;18.848;2023-08-07T04:19:16;3.60;;;2.90;;
62435;SDS011;48480;50.252;18.848;2023-08-07T04:22:00;4.00;;;3.10;;
62435;SDS011;48480;50.252;18.848;2023-08-07T04:24:44;3.90;;;3.00;;
62435;SDS011;48480;50.252;18.848;2023-08-07T04:27:30;4.10;;;2.50;;
62435;SDS011;48480;50.252;18.848;2023-08-07T04:30:13;3.40;;;2.30;;
62435;SDS011;48480;50.252;18.848;2023-08-07T04:32:57;2.90;;;2.30;;
62435;SDS011;48480;50.252;18.848;2023-08-07T04:35:41;2.20;;;1.80;;
62435;SDS011;48480;50.252;18.848;2023-08-07T04:38:26;2.70;;;2.20;;
62435;SDS011;48480;50.252;18.848;2023-08-07T04:41:10;4.20;;;2.00;;
62435;SDS011;48480;50.252;18.848;2023-08-07T04:43:55;2.50;;;1.80;;
62435;SDS011;48480;50.252;18.848;2023-08-07T04:46:39;4.80;;;2.00;;
62435;SDS011;48480;50.252;18.848;2023-08-07T04:49:25;4.80;;;1.90;;
62435;SDS011;48480;50.252;18.848;2023-08-07T04:52:09;2.40;;;1.80;;
62435;SDS011;48480;50.252;18.848;2023-08-07T04:54:53;3.40;;;1.80;;
62435;SDS011;48480;50.252;18.848;2023-08-07T04:57:37;4.30;;;2.10;;
62435;SDS011;48480;50.252;18.848;2023-08-07T05:00:21;2.80;;;1.70;;
62435;SDS011;48480;50.252;18.848;2023-08-07T05:03:06;2.50;;;1.90;;
62435;SDS011;48480;50.252;18.848;2023-08-07T05:05:50;2.20;;;1.70;;
62435;SDS011;48480;50.252;18.848;2023-08-07T05:08:34;2.60;;;1.70;;
62435;SDS011;48480;50.252;18.848;2023-08-07T05:11:18;1.70;;;1.30;;
62435;SDS011;48480;50.252;18.848;2023-08-07T05:14:04;3.40;;;1.50;;
62435;SDS011;48480;50.252;18.848;2023-08-07T05:16:47;2.80;;;1.60;;
62435;SDS011;48480;50.252;18.848;2023-08-07T05:19:31;2.50;;;1.30;;
62435;SDS011;48480;50.252;18.848;2023-08-07T05:22:15;1.60;;;1.30;;
62435;SDS011;48480;50.252;18.848;2023-08-07T05:24:59;2.80;;;1.80;;
62435;SDS011;48480;50.252;18.848;2023-08-07T05:27:47;2.30;;;1.50;;
62435;SDS011;48480;50.252;18.848;2023-08-07T05:30:31;2.10;;;1.20;;
62435;SDS011;48480;50.252;18.848;2023-08-07T05:33:16;2.60;;;1.20;;
62435;SDS011;48480;50.252;18.848;2023-08-07T05:36:00;7.30;;;2.00;;
62435;SDS011;48480;50.252;18.848;2023-08-07T05:38:44;3.60;;;1.40;;
62435;SDS011;48480;50.252;18.848;2023-08-07T05:41:28;2.10;;;1.40;;
62435;SDS011;48480;50.252;18.848;2023-08-07T05:44:12;2.30;;;1.30;;
62435;SDS011;48480;50.252;18.848;2023-08-07T05:46:56;2.50;;;1.30;;
62435;SDS011;48480;50.252;18.848;2023-08-07T05:49:40;3.50;;;1.30;;
62435;SDS011;48480;50.252;18.848;2023-08-07T05:52:26;3.20;;;1.40;;
62435;SDS011;48480;50.252;18.848;2023-08-07T05:55:10;2.90;;;1.50;;
62435;SDS011;48480;50.252;18.848;2023-08-07T05:57:54;3.10;;;1.20;;
62435;SDS011;48480;50.252;18.848;2023-08-07T06:00:38;3.60;;;1.10;;
62435;SDS011;48480;50.252;18.848;2023-08-07T06:03:22;3.00;;;1.10;;
62435;SDS011;48480;50.252;18.848;2023-08-07T06:06:07;1.60;;;0.80;;
62435;SDS011;48480;50.252;18.848;2023-08-07T06:08:51;1.40;;;1.00;;
62435;SDS011;48480;50.252;18.848;2023-08-07T06:11:35;2.90;;;1.00;;
62435;SDS011;48480;50.252;18.848;2023-08-07T06:14:19;2.40;;;1.00;;
62435;SDS011;48480;50.252;18.848;2023-08-07T06:17:03;1.10;;;1.00;;
62435;SDS011;48480;50.252;18.848;2023-08-07T06:19:48;2.10;;;1.20;;
62435;SDS011;48480;50.252;18.848;2023-08-07T06:22:33;1.50;;;1.00;;
62435;SDS011;48480;50.252;18.848;2023-08-07T06:25:17;1.20;;;0.90;;
62435;SDS011;48480;50.252;18.848;2023-08-07T06:28:02;1.10;;;0.70;;
62435;SDS011;48480;50.252;18.848;2023-08-07T06:30:47;1.80;;;0.80;;
62435;SDS011;48480;50.252;18.848;2023-08-07T06:33:31;3.50;;;0.90;;
62435;SDS011;48480;50.252;18.848;2023-08-07T06:36:16;1.70;;;0.80;;
62435;SDS011;48480;50.252;18.848;2023-08-07T06:39:00;1.60;;;1.10;;
62435;SDS011;48480;50.252;18.848;2023-08-07T06:41:44;2.90;;;1.10;;
62435;SDS011;48480;50.252;18.848;2023-08-07T06:44:29;1.70;;;0.80;;
62435;SDS011;48480;50.252;18.848;2023-08-07T06:47:13;1.80;;;0.70;;
62435;SDS011;48480;50.252;18.848;2023-08-07T06:49:58;1.00;;;0.80;;
62435;SDS011;48480;50.252;18.848;2023-08-07T06:52:42;1.30;;;0.90;;
62435;SDS011;48480;50.252;18.848;2023-08-07T06:55:26;1.60;;;1.00;;
62435;SDS011;48480;50.252;18.848;2023-08-07T06:58:10;1.40;;;0.80;;
62435;SDS011;48480;50.252;18.848;2023-08-07T07:00:55;1.00;;;0.70;;
62435;SDS011;48480;50.252;18.848;2023-08-07T07:03:39;1.50;;;1.00;;
62435;SDS011;48480;50.252;18.848;2023-08-07T07:06:23;1.50;;;0.90;;
62435;SDS011;48480;50.252;18.848;2023-08-07T07:09:10;0.90;;;0.80;;
62435;SDS011;48480;50.252;18.848;2023-08-07T07:11:54;1.30;;;0.90;;
62435;SDS011;48480;50.252;18.848;2023-08-07T07:14:39;1.00;;;0.80;;
62435;SDS011;48480;50.252;18.848;2023-08-07T07:17:23;2.20;;;0.60;;
62435;SDS011;48480;50.252;18.848;2023-08-07T07:20:07;0.60;;;0.60;;
62435;SDS011;48480;50.252;18.848;2023-08-07T07:22:54;1.60;;;0.80;;
62435;SDS011;48480;50.252;18.848;2023-08-07T07:25:38;1.60;;;0.60;;
62435;SDS011;48480;50.252;18.848;2023-08-07T07:28:22;1.90;;;0.90;;
62435;SDS011;48480;50.252;18.848;2023-08-07T07:31:07;1.30;;;0.70;;
62435;SDS011;48480;50.252;18.848;2023-08-07T07:33:56;3.20;;;1.00;;
62435;SDS011;48480;50.252;18.848;2023-08-07T07:36:40;1.30;;;0.60;;
62435;SDS011;48480;50.252;18.848;2023-08-07T07:39:24;1.40;;;0.70;;
62435;SDS011;48480;50.252;18.848;2023-08-07T07:42:08;2.30;;;0.90;;
62435;SDS011;48480;50.252;18.848;2023-08-07T07:44:52;1.20;;;0.60;;
62435;SDS011;48480;50.252;18.848;2023-08-07T07:47:37;1.10;;;0.70;;
62435;SDS011;48480;50.252;18.848;2023-08-07T07:50:21;1.70;;;0.70;;
62435;SDS011;48480;50.252;18.848;2023-08-07T07:53:07;1.90;;;1.00;;
62435;SDS011;48480;50.252;18.848;2023-08-07T07:55:51;1.00;;;0.70;;
62435;SDS011;48480;50.252;18.848;2023-08-07T07:58:35;0.60;;;0.60;;
62435;SDS011;48480;50.252;18.848;2023-08-07T08:01:19;2.20;;;0.90;;
62435;SDS011;48480;50.252;18.848;2023-08-07T08:04:10;1.40;;;0.70;;
62435;SDS011;48480;50.252;18.848;2023-08-07T08:06:55;0.90;;;0.50;;
62435;SDS011;48480;50.252;18.848;2023-08-07T08:09:39;2.00;;;0.80;;
62435;SDS011;48480;50.252;18.848;2023-08-07T08:12:23;1.60;;;0.80;;
62435;SDS011;48480;50.252;18.848;2023-08-07T08:15:08;3.30;;;0.90;;
62435;SDS011;48480;50.252;18.848;2023-08-07T08:17:53;1.00;;;0.70;;
62435;SDS011;48480;50.252;18.848;2023-08-07T08:20:40;2.00;;;0.80;;
62435;SDS011;48480;50.252;18.848;2023-08-07T08:23:24;2.50;;;0.80;;
62435;SDS011;48480;50.252;18.848;2023-08-07T08:26:08;1.50;;;0.80;;
62435;SDS011;48480;50.252;18.848;2023-08-07T08:28:52;2.80;;;1.00;;
62435;SDS011;48480;50.252;18.848;2023-08-07T08:31:37;1.00;;;0.70;;
62435;SDS011;48480;50.252;18.848;2023-08-07T08:34:21;2.80;;;1.10;;
62435;SDS011;48480;50.252;18.848;2023-08-07T08:37:06;0.90;;;0.60;;
62435;SDS011;48480;50.252;18.848;2023-08-07T08:39:50;1.30;;;0.80;;
62435;SDS011;48480;50.252;18.848;2023-08-07T08:42:35;1.20;;;0.90;;
62435;SDS011;48480;50.252;18.848;2023-08-07T08:45:22;1.70;;;1.00;;
62435;SDS011;48480;50.252;18.848;2023-08-07T08:48:09;2.10;;;1.00;;
62435;SDS011;48480;50.252;18.848;2023-08-07T08:50:59;5.00;;;1.10;;
62435;SDS011;48480;50.252;18.848;2023-08-07T08:53:45;2.70;;;1.10;;
62435;SDS011;48480;50.252;18.848;2023-08-07T08:56:30;2.50;;;1.60;;
62435;SDS011;48480;50.252;18.848;2023-08-07T08:59:14;2.30;;;1.10;;
62435;SDS011;48480;50.252;18.848;2023-08-07T09:02:02;1.50;;;1.00;;
62435;SDS011;48480;50.252;18.848;2023-08-07T09:04:47;1.80;;;0.90;;
62435;SDS011;48480;50.252;18.848;2023-08-07T09:07:31;1.50;;;0.70;;
62435;SDS011;48480;50.252;18.848;2023-08-07T09:10:16;1.90;;;0.70;;
62435;SDS011;48480;50.252;18.848;2023-08-07T09:13:01;2.00;;;0.70;;
62435;SDS011;48480;50.252;18.848;2023-08-07T09:15:50;1.10;;;0.90;;
62435;SDS011;48480;50.252;18.848;2023-08-07T09:18:35;1.70;;;1.10;;
62435;SDS011;48480;50.252;18.848;2023-08-07T09:21:19;2.40;;;0.90;;
62435;SDS011;48480;50.252;18.848;2023-08-07T09:24:04;1.20;;;0.80;;
62435;SDS011;48480;50.252;18.848;2023-08-07T09:26:48;2.30;;;0.90;;
62435;SDS011;48480;50.252;18.848;2023-08-07T09:29:34;1.90;;;1.20;;
62435;SDS011;48480;50.252;18.848;2023-08-07T09:32:19;1.40;;;0.90;;
62435;SDS011;48480;50.252;18.848;2023-08-07T09:35:06;1.00;;;0.90;;
62435;SDS011;48480;50.252;18.848;2023-08-07T09:37:52;1.20;;;0.80;;
62435;SDS011;48480;50.252;18.848;2023-08-07T09:40:37;4.10;;;1.00;;
62435;SDS011;48480;50.252;18.848;2023-08-07T09:43:21;1.80;;;1.10;;
62435;SDS011;48480;50.252;18.848;2023-08-07T09:46:06;1.90;;;0.90;;
62435;SDS011;48480;50.252;18.848;2023-08-07T09:48:51;2.10;;;1.00;;
62435;SDS011;48480;50.252;18.848;2023-08-07T09:51:45;1.70;;;1.00;;
62435;SDS011;48480;50.252;18.848;2023-08-07T09:54:31;1.10;;;0.80;;
62435;SDS011;48480;50.252;18.848;2023-08-07T09:57:15;0.80;;;0.60;;
62435;SDS011;48480;50.252;18.848;2023-08-07T10:00:00;4.10;;;0.90;;
62435;SDS011;48480;50.252;18.848;2023-08-07T10:02:44;1.40;;;0.90;;
62435;SDS011;48480;50.252;18.848;2023-08-07T10:05:30;2.70;;;1.20;;
62435;SDS011;48480;50.252;18.848;2023-08-07T10:08:14;1.70;;;1.10;;
62435;SDS011;48480;50.252;18.848;2023-08-07T10:11:00;1.70;;;1.30;;
62435;SDS011;48480;50.252;18.848;2023-08-07T10:13:45;1.40;;;1.00;;
62435;SDS011;48480;50.252;18.848;2023-08-07T10:16:30;2.50;;;1.30;;
62435;SDS011;48480;50.252;18.848;2023-08-07T10:19:14;1.90;;;1.30;;
62435;SDS011;48480;50.252;18.848;2023-08-07T10:21:58;2.40;;;1.70;;
62435;SDS011;48480;50.252;18.848;2023-08-07T10:24:43;3.10;;;2.20;;
62435;SDS011;48480;50.252;18.848;2023-08-07T10:27:29;3.50;;;2.10;;
62435;SDS011;48480;50.252;18.848;2023-08-07T10:30:21;2.20;;;1.50;;
62435;SDS011;48480;50.252;18.848;2023-08-07T10:33:12;3.80;;;1.80;;
62435;SDS011;48480;50.252;18.848;2023-08-07T10:35:57;2.30;;;1.80;;
62435;SDS011;48480;50.252;18.848;2023-08-07T10:38:44;3.30;;;1.80;;
62435;SDS011;48480;50.252;18.848;2023-08-07T10:41:37;3.80;;;1.80;;
62435;SDS011;48480;50.252;18.848;2023-08-07T10:44:32;3.70;;;2.20;;
62435;SDS011;48480;50.252;18.848;2023-08-07T10:47:17;3.50;;;1.70;;
62435;SDS011;48480;50.252;18.848;2023-08-07T10:50:17;3.00;;;1.70;;
62435;SDS011;48480;50.252;18.848;2023-08-07T10:53:02;4.70;;;1.50;;
62435;SDS011;48480;50.252;18.848;2023-08-07T10:55:47;2.50;;;1.70;;
62435;SDS011;48480;50.252;18.848;2023-08-07T11:04:14;5.20;;;2.00;;
62435;SDS011;48480;50.252;18.848;2023-08-07T11:06:58;3.20;;;1.90;;
62435;SDS011;48480;50.252;18.848;2023-08-07T11:09:43;3.90;;;1.80;;
62435;SDS011;48480;50.252;18.848;2023-08-07T11:12:28;2.80;;;1.60;;
62435;SDS011;48480;50.252;18.848;2023-08-07T11:15:13;2.40;;;1.40;;
62435;SDS011;48480;50.252;18.848;2023-08-07T11:17:59;3.50;;;1.70;;
62435;SDS011;48480;50.252;18.848;2023-08-07T11:20:44;3.70;;;1.50;;
62435;SDS011;48480;50.252;18.848;2023-08-07T11:23:28;3.10;;;1.70;;
62435;SDS011;48480;50.252;18.848;2023-08-07T11:26:12;2.90;;;1.70;;
62435;SDS011;48480;50.252;18.848;2023-08-07T11:28:56;3.60;;;1.60;;
62435;SDS011;48480;50.252;18.848;2023-08-07T11:31:41;3.10;;;1.70;;
62435;SDS011;48480;50.252;18.848;2023-08-07T11:34:25;3.20;;;1.80;;
62435;SDS011;48480;50.252;18.848;2023-08-07T11:37:14;3.40;;;1.70;;
62435;SDS011;48480;50.252;18.848;2023-08-07T11:40:06;2.80;;;1.70;;
62435;SDS011;48480;50.252;18.848;2023-08-07T11:42:52;3.10;;;2.00;;
62435;SDS011;48480;50.252;18.848;2023-08-07T11:45:36;2.60;;;1.70;;
62435;SDS011;48480;50.252;18.848;2023-08-07T11:48:23;3.70;;;1.80;;
62435;SDS011;48480;50.252;18.848;2023-08-07T11:51:09;3.40;;;2.00;;
62435;SDS011;48480;50.252;18.848;2023-08-07T11:53:53;2.60;;;1.70;;
62435;SDS011;48480;50.252;18.848;2023-08-07T11:56:40;3.50;;;2.00;;
62435;SDS011;48480;50.252;18.848;2023-08-07T11:59:26;2.90;;;2.00;;
62435;SDS011;48480;50.252;18.848;2023-08-07T12:02:10;4.60;;;2.50;;
62435;SDS011;48480;50.252;18.848;2023-08-07T12:04:59;5.00;;;2.40;;
62435;SDS011;48480;50.252;18.848;2023-08-07T12:07:43;4.40;;;2.10;;
62435;SDS011;48480;50.252;18.848;2023-08-07T12:10:27;2.90;;;1.90;;
62435;SDS011;48480;50.252;18.848;2023-08-07T12:13:14;2.60;;;1.70;;
62435;SDS011;48480;50.252;18.848;2023-08-07T12:15:58;2.90;;;2.00;;
62435;SDS011;48480;50.252;18.848;2023-08-07T12:18:43;4.00;;;2.00;;
62435;SDS011;48480;50.252;18.848;2023-08-07T12:21:29;4.10;;;2.30;;
62435;SDS011;48480;50.252;18.848;2023-08-07T12:27:06;2.80;;;2.10;;
62435;SDS011;48480;50.252;18.848;2023-08-07T12:29:51;3.30;;;2.00;;
62435;SDS011;48480;50.252;18.848;2023-08-07T12:32:36;3.50;;;2.30;;
62435;SDS011;48480;50.252;18.848;2023-08-07T12:35:20;4.50;;;2.50;;
62435;SDS011;48480;50.252;18.848;2023-08-07T12:38:05;4.20;;;2.50;;
62435;SDS011;48480;50.252;18.848;2023-08-07T12:40:50;5.20;;;2.40;;
62435;SDS011;48480;50.252;18.848;2023-08-07T12:43:34;5.10;;;2.10;;
62435;SDS011;48480;50.252;18.848;2023-08-07T12:46:18;3.90;;;2.10;;
62435;SDS011;48480;50.252;18.848;2023-08-07T12:49:02;3.20;;;2.10;;
62435;SDS011;48480;50.252;18.848;2023-08-07T12:51:46;3.40;;;2.10;;
62435;SDS011;48480;50.252;18.848;2023-08-07T12:54:30;3.50;;;2.10;;
62435;SDS011;48480;50.252;18.848;2023-08-07T12:57:14;4.10;;;2.20;;
62435;SDS011;48480;50.252;18.848;2023-08-07T12:59:58;3.20;;;1.90;;
62435;SDS011;48480;50.252;18.848;2023-08-07T13:02:43;3.00;;;2.30;;
62435;SDS011;48480;50.252;18.848;2023-08-07T13:05:28;3.80;;;2.30;;
62435;SDS011;48480;50.252;18.848;2023-08-07T13:08:16;2.90;;;1.70;;
62435;SDS011;48480;50.252;18.848;2023-08-07T13:11:03;3.90;;;2.10;;
62435;SDS011;48480;50.252;18.848;2023-08-07T13:13:47;3.00;;;1.60;;
62435;SDS011;48480;50.252;18.848;2023-08-07T13:16:32;2.90;;;1.70;;
62435;SDS011;48480;50.252;18.848;2023-08-07T13:19:17;3.30;;;2.20;;
62435;SDS011;48480;50.252;18.848;2023-08-07T13:22:01;3.70;;;2.00;;
62435;SDS011;48480;50.252;18.848;2023-08-07T13:24:45;3.00;;;1.90;;
62435;SDS011;48480;50.252;18.848;2023-08-07T13:27:33;3.30;;;1.90;;
62435;SDS011;48480;50.252;18.848;2023-08-07T13:30:21;2.30;;;1.90;;
62435;SDS011;48480;50.252;18.848;2023-08-07T13:33:05;4.50;;;2.40;;
62435;SDS011;48480;50.252;18.848;2023-08-07T13:35:49;3.30;;;1.90;;
62435;SDS011;48480;50.252;18.848;2023-08-07T13:38:34;2.40;;;1.90;;
62435;SDS011;48480;50.252;18.848;2023-08-07T13:41:18;4.10;;;2.10;;
62435;SDS011;48480;50.252;18.848;2023-08-07T13:44:02;3.40;;;1.70;;
62435;SDS011;48480;50.252;18.848;2023-08-07T13:46:47;2.40;;;2.00;;
62435;SDS011;48480;50.252;18.848;2023-08-07T13:49:31;3.40;;;1.80;;
62435;SDS011;48480;50.252;18.848;2023-08-07T13:52:15;3.00;;;1.90;;
62435;SDS011;48480;50.252;18.848;2023-08-07T13:55:00;2.70;;;2.00;;
62435;SDS011;48480;50.252;18.848;2023-08-07T13:57:44;3.60;;;2.20;;
62435;SDS011;48480;50.252;18.848;2023-08-07T14:00:29;3.70;;;2.10;;
62435;SDS011;48480;50.252;18.848;2023-08-07T14:03:18;4.70;;;2.30;;
62435;SDS011;48480;50.252;18.848;2023-08-07T14:06:03;4.10;;;2.20;;
62435;SDS011;48480;50.252;18.848;2023-08-07T14:08:48;2.90;;;1.90;;
62435;SDS011;48480;50.252;18.848;2023-08-07T14:11:32;4.70;;;2.50;;
62435;SDS011;48480;50.252;18.848;2023-08-07T14:14:16;4.60;;;2.60;;
62435;SDS011;48480;50.252;18.848;2023-08-07T14:17:01;3.50;;;2.30;;
62435;SDS011;48480;50.252;18.848;2023-08-07T14:19:46;3.50;;;2.10;;
62435;SDS011;48480;50.252;18.848;2023-08-07T14:22:30;4.60;;;1.90;;
62435;SDS011;48480;50.252;18.848;2023-08-07T14:25:17;4.30;;;2.40;;
62435;SDS011;48480;50.252;18.848;2023-08-07T14:28:01;3.50;;;2.20;;
62435;SDS011;48480;50.252;18.848;2023-08-07T14:30:45;3.30;;;2.20;;
62435;SDS011;48480;50.252;18.848;2023-08-07T14:33:29;4.30;;;2.20;;
62435;SDS011;48480;50.252;18.848;2023-08-07T14:36:14;3.70;;;2.20;;
62435;SDS011;48480;50.252;18.848;2023-08-07T14:38:59;5.10;;;2.20;;
62435;SDS011;48480;50.252;18.848;2023-08-07T14:41:43;3.90;;;2.20;;
62435;SDS011;48480;50.252;18.848;2023-08-07T14:44:27;3.80;;;2.00;;
62435;SDS011;48480;50.252;18.848;2023-08-07T14:47:13;3.20;;;2.30;;
62435;SDS011;48480;50.252;18.848;2023-08-07T14:49:57;4.10;;;2.10;;
62435;SDS011;48480;50.252;18.848;2023-08-07T14:52:40;4.80;;;2.60;;
62435;SDS011;48480;50.252;18.848;2023-08-07T14:55:29;3.50;;;2.40;;
62435;SDS011;48480;50.252;18.848;2023-08-07T14:58:13;6.00;;;2.70;;
62435;SDS011;48480;50.252;18.848;2023-08-07T15:00:57;4.60;;;2.60;;
62435;SDS011;48480;50.252;18.848;2023-08-07T15:03:41;5.70;;;2.40;;
62435;SDS011;48480;50.252;18.848;2023-08-07T15:06:25;5.30;;;2.30;;
62435;SDS011;48480;50.252;18.848;2023-08-07T15:09:09;3.60;;;2.50;;
62435;SDS011;48480;50.252;18.848;2023-08-07T15:11:53;3.20;;;2.30;;
62435;SDS011;48480;50.252;18.848;2023-08-07T15:14:38;4.30;;;3.00;;
62435;SDS011;48480;50.252;18.848;2023-08-07T15:17:22;4.40;;;3.00;;
62435;SDS011;48480;50.252;18.848;2023-08-07T15:20:06;4.10;;;2.80;;
62435;SDS011;48480;50.252;18.848;2023-08-07T15:22:50;4.30;;;2.60;;
62435;SDS011;48480;50.252;18.848;2023-08-07T15:25:36;3.80;;;2.40;;
62435;SDS011;48480;50.252;18.848;2023-08-07T15:28:21;3.80;;;2.90;;
62435;SDS011;48480;50.252;18.848;2023-08-07T15:31:05;3.80;;;2.60;;
62435;SDS011;48480;50.252;18.848;2023-08-07T15:33:50;4.50;;;2.40;;
62435;SDS011;48480;50.252;18.848;2023-08-07T15:36:36;7.60;;;2.90;;
62435;SDS011;48480;50.252;18.848;2023-08-07T15:39:20;4.50;;;2.70;;
62435;SDS011;48480;50.252;18.848;2023-08-07T15:42:04;3.60;;;2.10;;
62435;SDS011;48480;50.252;18.848;2023-08-07T15:44:48;5.80;;;2.20;;
62435;SDS011;48480;50.252;18.848;2023-08-07T15:47:32;4.20;;;2.60;;
62435;SDS011;48480;50.252;18.848;2023-08-07T15:50:16;2.90;;;1.70;;
62435;SDS011;48480;50.252;18.848;2023-08-07T15:53:00;4.10;;;2.00;;
62435;SDS011;48480;50.252;18.848;2023-08-07T15:55:45;3.90;;;2.30;;
62435;SDS011;48480;50.252;18.848;2023-08-07T15:58:29;5.40;;;2.30;;
62435;SDS011;48480;50.252;18.848;2023-08-07T16:01:13;2.80;;;1.70;;
62435;SDS011;48480;50.252;18.848;2023-08-07T16:03:57;2.70;;;1.80;;
62435;SDS011;48480;50.252;18.848;2023-08-07T16:06:42;2.70;;;1.80;;
62435;SDS011;48480;50.252;18.848;2023-08-07T16:09:26;3.50;;;2.00;;
62435;SDS011;48480;50.252;18.848;2023-08-07T16:12:10;2.60;;;1.70;;
62435;SDS011;48480;50.252;18.848;2023-08-07T16:14:54;3.70;;;1.70;;
62435;SDS011;48480;50.252;18.848;2023-08-07T16:17:42;4.40;;;1.70;;
62435;SDS011;48480;50.252;18.848;2023-08-07T16:20:27;2.40;;;1.60;;
62435;SDS011;48480;50.252;18.848;2023-08-07T16:23:11;3.40;;;2.00;;
62435;SDS011;48480;50.252;18.848;2023-08-07T16:25:55;3.50;;;2.00;;
62435;SDS011;48480;50.252;18.848;2023-08-07T16:28:40;3.00;;;1.80;;